Date,TemperatureHighF,TemperatureAvgF,TemperatureLowF,DewpointHighF,DewpointAvgF,DewpointLowF,HumidityHigh,HumidityAvg,HumidityLow,PressureMaxIn,PressureMinIn,WindSpeedMaxMPH,WindSpeedAvgMPH,GustSpeedMaxMPH,PrecipitationSumIn
2013-8-1,73,70,68,65,62,61,84,76,71,0.00,40.00,7,1,18,0.00
2013-8-2,83,79,72,63,61,58,73,56,44,0.00,40.00,8,3,6,0.00
2013-8-3,75,70,66,67,65,63,90,84,73,0.00,40.00,7,1,10,0.00
2013-8-4,80,75,66,59,54,50,65,49,37,0.00,40.00,5,1,14,0.00
2013-8-5,77,67,58,59,52,45,77,59,33,0.00,40.00,5,1,11,0.00
2013-8-6,77,68,57,61,56,50,88,67,38,0.00,40.00,6,1,13,0.00
2013-8-7,77,72,67,67,64,61,89,79,64,0.00,40.00,11,3,20,0.00
2013-8-8,81,74,70,73,70,67,96,88,74,0.00,40.00,7,2,22,1.62
2013-8-9,84,78,73,75,73,70,96,85,68,0.00,40.00,11,3,17,0.15
2013-8-10,82,75,69,73,66,60,96,75,52,0.00,40.00,10,1,11,0.01
2013-8-11,77,71,63,67,60,56,94,71,54,0.00,40.00,8,2,13,0.00
2013-8-12,78,72,67,69,67,65,96,86,69,0.00,40.00,8,1,11,0.00
2013-8-13,76,70,67,73,66,-100,97,92,76,0.00,40.00,5,1,12,1.56
2013-8-14,73,67,59,68,54,46,94,64,44,0.00,40.00,8,2,16,0.01
2013-8-15,74,59,55,55,40,-100,84,61,37,0.00,40.00,5,1,15,0.00
2013-8-16,76,64,56,57,49,-100,88,65,37,0.00,40.00,5,1,13,0.00
2013-8-17,77,66,56,60,54,-100,95,70,43,0.00,40.00,6,1,11,0.00
2013-8-18,73,67,61,64,59,52,92,77,61,0.00,40.00,7,2,16,0.01
2013-8-19,76,64,59,64,53,-100,94,77,54,0.00,40.00,5,1,11,0.00
2013-8-20,66,66,65,63,62,62,92,90,89,0.00,40.00,0,0,5,0.00
2013-8-21,86,80,73,71,68,61,83,67,45,0.00,40.00,5,2,14,0.00
2013-8-22,80,75,71,70,69,66,91,80,71,0.00,40.00,6,2,14,0.36
2013-8-23,79,72,65,63,60,52,81,67,40,0.00,40.00,4,0,10,0.00
2013-8-24,73,67,58,60,55,-100,95,68,51,0.00,40.00,9,3,16,0.00
2013-8-25,81,72,64,60,53,49,84,52,35,0.00,40.00,5,2,12,0.00
2013-8-28,78,77,76,69,69,68,78,75,71,0.00,40.00,3,1,7,0.00
2013-8-29,75,73,70,65,65,64,85,75,70,0.00,40.00,8,4,14,0.00
2013-8-30,82,79,75,68,67,65,80,67,57,0.00,40.00,8,4,14,0.00
2013-8-31,87,79,77,72,66,-100,76,68,60,0.00,40.00,8,4,15,0.00